sensor_id;sensor_type;location;lat;lon;timestamp;pressure;altitude;pressure_sealevel;temperature;humidity
75086;BME280;63663;0.000;0.000;2022-10-26T00:00:22;100835.31;;;17.34;53.46
75086;BME280;63663;0.000;0.000;2022-10-26T00:02:47;100832.06;;;17.32;53.35
75086;BME280;63663;0.000;0.000;2022-10-26T00:05:12;100838.38;;;17.32;53.17
75086;BME280;63663;0.000;0.000;2022-10-26T00:07:37;100840.31;;;17.32;53.36
75086;BME280;63663;0.000;0.000;2022-10-26T00:10:02;100839.81;;;17.30;53.37
75086;BME280;63663;0.000;0.000;2022-10-26T00:12:28;100838.19;;;17.29;53.46
75086;BME280;63663;0.000;0.000;2022-10-26T00:14:53;100845.63;;;17.28;53.50
75086;BME280;63663;0.000;0.000;2022-10-26T00:17:18;100840.13;;;17.28;53.56
75086;BME280;63663;0.000;0.000;2022-10-26T00:19:43;100835.75;;;17.27;53.41
75086;BME280;63663;0.000;0.000;2022-10-26T00:22:08;100838.81;;;17.26;53.74
75086;BME280;63663;0.000;0.000;2022-10-26T00:24:33;100837.19;;;17.25;53.73
75086;BME280;63663;0.000;0.000;2022-10-26T00:26:58;100837.50;;;17.23;53.32
75086;BME280;63663;0.000;0.000;2022-10-26T00:29:24;100838.31;;;17.24;53.36
75086;BME280;63663;0.000;0.000;2022-10-26T00:31:49;100837.78;;;17.22;53.42
75086;BME280;63663;0.000;0.000;2022-10-26T00:34:14;100836.97;;;17.21;53.37
75086;BME280;63663;0.000;0.000;2022-10-26T00:36:39;100829.84;;;17.20;53.26
75086;BME280;63663;0.000;0.000;2022-10-26T00:39:04;100827.09;;;17.20;53.28
75086;BME280;63663;0.000;0.000;2022-10-26T00:41:30;100830.97;;;17.19;53.30
75086;BME280;63663;0.000;0.000;2022-10-26T00:43:56;100828.22;;;17.19;53.34
75086;BME280;63663;0.000;0.000;2022-10-26T00:46:23;100826.63;;;17.18;53.27
75086;BME280;63663;0.000;0.000;2022-10-26T00:48:51;100818.66;;;17.17;53.36
75086;BME280;63663;0.000;0.000;2022-10-26T00:51:19;100822.53;;;17.16;53.45
75086;BME280;63663;0.000;0.000;2022-10-26T00:53:46;100832.72;;;17.15;53.13
75086;BME280;63663;0.000;0.000;2022-10-26T00:56:11;100827.53;;;17.14;53.12
75086;BME280;63663;0.000;0.000;2022-10-26T00:58:37;100827.53;;;17.14;53.17
75086;BME280;63663;0.000;0.000;2022-10-26T01:01:02;100824.78;;;17.14;53.49
75086;BME280;63663;0.000;0.000;2022-10-26T01:03:27;100831.41;;;17.13;53.30
75086;BME280;63663;0.000;0.000;2022-10-26T01:05:54;100825.09;;;17.12;53.56
75086;BME280;63663;0.000;0.000;2022-10-26T01:08:20;100817.16;;;17.11;53.66
75086;BME280;63663;0.000;0.000;2022-10-26T01:10:46;100821.00;;;17.10;53.51
75086;BME280;63663;0.000;0.000;2022-10-26T01:13:11;100826.50;;;17.10;53.78
75086;BME280;63663;0.000;0.000;2022-10-26T01:18:23;100818.56;;;17.08;53.87
75086;BME280;63663;0.000;0.000;2022-10-26T01:28:39;100810.97;;;17.05;53.87
75086;BME280;63663;0.000;0.000;2022-10-26T01:31:10;100800.28;;;17.04;53.75
75086;BME280;63663;0.000;0.000;2022-10-26T01:33:38;100802.19;;;17.03;53.84
75086;BME280;63663;0.000;0.000;2022-10-26T01:36:08;100804.94;;;17.03;53.84
75086;BME280;63663;0.000;0.000;2022-10-26T01:41:04;100791.50;;;17.01;53.83
75086;BME280;63663;0.000;0.000;2022-10-26T01:43:33;100788.75;;;17.01;54.23
75086;BME280;63663;0.000;0.000;2022-10-26T01:45:59;100786.31;;;17.00;54.11
75086;BME280;63663;0.000;0.000;2022-10-26T01:48:26;100783.56;;;17.00;54.30
75086;BME280;63663;0.000;0.000;2022-10-26T01:50:52;100777.25;;;16.99;54.35
75086;BME280;63663;0.000;0.000;2022-10-26T01:53:17;100770.13;;;16.98;54.48
75086;BME280;63663;0.000;0.000;2022-10-26T01:55:50;100779.50;;;16.97;54.08
75086;BME280;63663;0.000;0.000;2022-10-26T02:01:02;100780.94;;;16.95;54.36
75086;BME280;63663;0.000;0.000;2022-10-26T02:03:32;100777.06;;;16.96;54.10
75086;BME280;63663;0.000;0.000;2022-10-26T02:11:08;100776.56;;;16.94;54.46
75086;BME280;63663;0.000;0.000;2022-10-26T02:13:45;100765.88;;;16.92;54.24
75086;BME280;63663;0.000;0.000;2022-10-26T02:21:34;100748.88;;;16.90;54.84
75086;BME280;63663;0.000;0.000;2022-10-26T02:24:00;100750.00;;;16.89;54.69
75086;BME280;63663;0.000;0.000;2022-10-26T02:26:27;100757.13;;;16.90;54.65
75086;BME280;63663;0.000;0.000;2022-10-26T02:28:55;100753.56;;;16.90;55.00
75086;BME280;63663;0.000;0.000;2022-10-26T02:31:22;100753.56;;;16.90;54.78
75086;BME280;63663;0.000;0.000;2022-10-26T02:33:48;100752.75;;;16.89;54.99
75086;BME280;63663;0.000;0.000;2022-10-26T02:36:17;100750.28;;;16.88;55.06
75086;BME280;63663;0.000;0.000;2022-10-26T02:38:43;100736.84;;;16.86;54.75
75086;BME280;63663;0.000;0.000;2022-10-26T02:41:10;100733.28;;;16.86;55.10
75086;BME280;63663;0.000;0.000;2022-10-26T02:43:38;100738.78;;;16.86;55.08
75086;BME280;63663;0.000;0.000;2022-10-26T02:46:07;100745.41;;;16.85;54.88
75086;BME280;63663;0.000;0.000;2022-10-26T02:48:34;100739.91;;;16.85;55.18
75086;BME280;63663;0.000;0.000;2022-10-26T02:51:07;100727.31;;;16.84;54.99
75086;BME280;63663;0.000;0.000;2022-10-26T02:54:21;100731.19;;;16.83;54.95
75086;BME280;63663;0.000;0.000;2022-10-26T02:56:21;100722.13;;;16.82;55.01
75086;BME280;63663;0.000;0.000;2022-10-26T02:58:49;100730.38;;;16.82;55.16
75086;BME280;63663;0.000;0.000;2022-10-26T03:01:16;100726.00;;;16.81;55.44
75086;BME280;63663;0.000;0.000;2022-10-26T03:03:41;100723.25;;;16.81;55.17
75086;BME280;63663;0.000;0.000;2022-10-26T03:06:06;100716.94;;;16.81;55.59
75086;BME280;63663;0.000;0.000;2022-10-26T03:08:32;100718.88;;;16.80;55.52
75086;BME280;63663;0.000;0.000;2022-10-26T03:10:57;100720.00;;;16.79;55.23
75086;BME280;63663;0.000;0.000;2022-10-26T03:13:22;100717.25;;;16.79;55.70
75086;BME280;63663;0.000;0.000;2022-10-26T03:15:47;100721.91;;;16.79;55.61
75086;BME280;63663;0.000;0.000;2022-10-26T03:18:12;100725.78;;;16.78;55.42
75086;BME280;63663;0.000;0.000;2022-10-26T03:20:37;100715.59;;;16.78;55.47
75086;BME280;63663;0.000;0.000;2022-10-26T03:23:03;100722.22;;;16.77;55.53
75086;BME280;63663;0.000;0.000;2022-10-26T03:25:28;100712.34;;;16.76;55.30
75086;BME280;63663;0.000;0.000;2022-10-26T03:27:57;100720.59;;;16.76;55.64
75086;BME280;63663;0.000;0.000;2022-10-26T03:30:22;100706.03;;;16.76;55.76
75086;BME280;63663;0.000;0.000;2022-10-26T03:32:47;100703.28;;;16.76;55.80
75086;BME280;63663;0.000;0.000;2022-10-26T03:35:12;100704.09;;;16.76;55.73
75086;BME280;63663;0.000;0.000;2022-10-26T03:37:37;100703.59;;;16.74;55.90
75086;BME280;63663;0.000;0.000;2022-10-26T03:40:02;100713.47;;;16.75;55.42
75086;BME280;63663;0.000;0.000;2022-10-26T03:42:32;100702.78;;;16.74;55.61
75086;BME280;63663;0.000;0.000;2022-10-26T03:44:57;100702.78;;;16.74;55.84
75086;BME280;63663;0.000;0.000;2022-10-26T03:47:22;100696.47;;;16.73;56.04
75086;BME280;63663;0.000;0.000;2022-10-26T03:49:47;100699.22;;;16.73;55.50
75086;BME280;63663;0.000;0.000;2022-10-26T03:52:12;100701.97;;;16.73;55.60
75086;BME280;63663;0.000;0.000;2022-10-26T03:54:37;100711.38;;;16.72;55.89
75086;BME280;63663;0.000;0.000;2022-10-26T03:57:02;100702.31;;;16.72;55.64
75086;BME280;63663;0.000;0.000;2022-10-26T03:59:28;100700.69;;;16.71;56.09
75086;BME280;63663;0.000;0.000;2022-10-26T04:01:53;100703.44;;;16.71;56.11
75086;BME280;63663;0.000;0.000;2022-10-26T04:04:18;100710.84;;;16.70;55.92
75086;BME280;63663;0.000;0.000;2022-10-26T04:06:43;100710.84;;;16.70;56.00
75086;BME280;63663;0.000;0.000;2022-10-26T04:09:08;100705.66;;;16.69;55.82
75086;BME280;63663;0.000;0.000;2022-10-26T04:11:33;100705.66;;;16.69;56.05
75086;BME280;63663;0.000;0.000;2022-10-26T04:13:58;100703.72;;;16.69;55.67
75086;BME280;63663;0.000;0.000;2022-10-26T04:16:24;100705.66;;;16.69;56.01
75086;BME280;63663;0.000;0.000;2022-10-26T04:18:49;100706.78;;;16.68;55.85
75086;BME280;63663;0.000;0.000;2022-10-26T04:21:14;100706.78;;;16.68;55.94
75086;BME280;63663;0.000;0.000;2022-10-26T04:23:39;100709.84;;;16.66;56.19
75086;BME280;63663;0.000;0.000;2022-10-26T04:26:04;100713.41;;;16.67;56.00
75086;BME280;63663;0.000;0.000;2022-10-26T04:28:30;100704.34;;;16.66;55.76
75086;BME280;63663;0.000;0.000;2022-10-26T04:30:55;100701.91;;;16.64;55.97
75086;BME280;63663;0.000;0.000;2022-10-26T04:33:20;100704.66;;;16.64;55.94
75086;BME280;63663;0.000;0.000;2022-10-26T04:35:45;100709.34;;;16.64;56.13
75086;BME280;63663;0.000;0.000;2022-10-26T04:38:10;100707.41;;;16.64;55.82
75086;BME280;63663;0.000;0.000;2022-10-26T04:40:35;100711.25;;;16.63;56.19
75086;BME280;63663;0.000;0.000;2022-10-26T04:43:01;100699.47;;;16.63;56.08
75086;BME280;63663;0.000;0.000;2022-10-26T04:45:26;100707.69;;;16.63;56.10
75086;BME280;63663;0.000;0.000;2022-10-26T04:48:01;100700.56;;;16.62;56.02
75086;BME280;63663;0.000;0.000;2022-10-26T04:50:26;100701.38;;;16.62;56.40
75086;BME280;63663;0.000;0.000;2022-10-26T04:52:51;100699.72;;;16.61;56.24
75086;BME280;63663;0.000;0.000;2022-10-26T04:55:17;100690.69;;;16.61;56.01
75086;BME280;63663;0.000;0.000;2022-10-26T04:57:42;100698.13;;;16.60;55.99
75086;BME280;63663;0.000;0.000;2022-10-26T05:00:08;100704.44;;;16.61;56.18
75086;BME280;63663;0.000;0.000;2022-10-26T05:02:33;100701.19;;;16.59;56.05
75086;BME280;63663;0.000;0.000;2022-10-26T05:04:58;100703.94;;;16.59;56.23
75086;BME280;63663;0.000;0.000;2022-10-26T05:07:23;100705.88;;;16.58;56.24
75086;BME280;63663;0.000;0.000;2022-10-26T05:09:49;100703.13;;;16.58;56.36
75086;BME280;63663;0.000;0.000;2022-10-26T05:12:14;100704.25;;;16.57;56.27
75086;BME280;63663;0.000;0.000;2022-10-26T05:14:39;100704.25;;;16.57;55.86
75086;BME280;63663;0.000;0.000;2022-10-26T05:17:04;100702.31;;;16.58;56.05
75086;BME280;63663;0.000;0.000;2022-10-26T05:19:29;100701.50;;;16.57;55.96
75086;BME280;63663;0.000;0.000;2022-10-26T05:21:55;100701.50;;;16.57;56.13
75086;BME280;63663;0.000;0.000;2022-10-26T05:24:20;100702.63;;;16.56;56.06
75086;BME280;63663;0.000;0.000;2022-10-26T05:26:45;100696.31;;;16.56;56.47
75086;BME280;63663;0.000;0.000;2022-10-26T05:29:10;100693.56;;;16.56;56.21
75086;BME280;63663;0.000;0.000;2022-10-26T05:31:35;100701.78;;;16.56;56.26
75086;BME280;63663;0.000;0.000;2022-10-26T05:34:00;100695.50;;;16.55;56.21
75086;BME280;63663;0.000;0.000;2022-10-26T05:36:25;100695.78;;;16.54;55.96
75086;BME280;63663;0.000;0.000;2022-10-26T05:38:50;100701.28;;;16.54;56.12
75086;BME280;63663;0.000;0.000;2022-10-26T05:41:16;100701.28;;;16.54;56.15
75086;BME280;63663;0.000;0.000;2022-10-26T05:43:41;100705.97;;;16.53;56.39
75086;BME280;63663;0.000;0.000;2022-10-26T05:46:06;100702.41;;;16.53;56.47
75086;BME280;63663;0.000;0.000;2022-10-26T05:48:31;100709.84;;;16.52;56.15
75086;BME280;63663;0.000;0.000;2022-10-26T05:50:59;100702.41;;;16.53;56.19
75086;BME280;63663;0.000;0.000;2022-10-26T05:53:25;100710.66;;;16.53;56.24
75086;BME280;63663;0.000;0.000;2022-10-26T05:55:50;100709.03;;;16.52;56.12
75086;BME280;63663;0.000;0.000;2022-10-26T05:58:16;100711.78;;;16.52;56.38
75086;BME280;63663;0.000;0.000;2022-10-26T06:00:48;100715.63;;;16.51;56.57
75086;BME280;63663;0.000;0.000;2022-10-26T06:03:23;100721.94;;;16.51;56.47
75086;BME280;63663;0.000;0.000;2022-10-26T06:05:55;100715.63;;;16.51;56.34
75086;BME280;63663;0.000;0.000;2022-10-26T06:08:21;100726.63;;;16.51;56.59
75086;BME280;63663;0.000;0.000;2022-10-26T06:10:47;100724.22;;;16.49;56.28
75086;BME280;63663;0.000;0.000;2022-10-26T06:13:13;100726.97;;;16.49;56.42
75086;BME280;63663;0.000;0.000;2022-10-26T06:15:44;100730.53;;;16.50;56.77
75086;BME280;63663;0.000;0.000;2022-10-26T06:23:23;100728.91;;;16.49;56.70
75086;BME280;63663;0.000;0.000;2022-10-26T06:26:01;100746.50;;;16.48;56.83
75086;BME280;63663;0.000;0.000;2022-10-26T06:30:55;100745.69;;;16.47;56.66
75086;BME280;63663;0.000;0.000;2022-10-26T06:33:21;100747.63;;;16.47;56.46
75086;BME280;63663;0.000;0.000;2022-10-26T06:35:50;100744.88;;;16.47;56.80
75086;BME280;63663;0.000;0.000;2022-10-26T06:38:20;100755.84;;;16.47;56.30
75086;BME280;63663;0.000;0.000;2022-10-26T06:40:47;100746.00;;;16.46;56.53
75086;BME280;63663;0.000;0.000;2022-10-26T06:43:23;100752.28;;;16.46;56.69
75086;BME280;63663;0.000;0.000;2022-10-26T06:45:50;100757.78;;;16.46;56.90
75086;BME280;63663;0.000;0.000;2022-10-26T06:48:18;100766.03;;;16.46;56.85
75086;BME280;63663;0.000;0.000;2022-10-26T06:50:46;100759.72;;;16.46;57.29
75086;BME280;63663;0.000;0.000;2022-10-26T06:55:42;100761.66;;;16.45;57.05
75086;BME280;63663;0.000;0.000;2022-10-26T06:58:18;100761.66;;;16.45;57.19
75086;BME280;63663;0.000;0.000;2022-10-26T07:00:44;100753.72;;;16.44;57.16
75086;BME280;63663;0.000;0.000;2022-10-26T07:03:10;100757.28;;;16.44;57.14
75086;BME280;63663;0.000;0.000;2022-10-26T07:05:35;100758.09;;;16.45;57.24
75086;BME280;63663;0.000;0.000;2022-10-26T07:08:00;100761.97;;;16.44;57.15
75086;BME280;63663;0.000;0.000;2022-10-26T07:10:26;100759.22;;;16.44;57.15
75086;BME280;63663;0.000;0.000;2022-10-26T07:12:51;100762.78;;;16.44;57.29
75086;BME280;63663;0.000;0.000;2022-10-26T07:15:16;100765.53;;;16.44;57.52
75086;BME280;63663;0.000;0.000;2022-10-26T07:17:44;100772.94;;;16.44;57.55
75086;BME280;63663;0.000;0.000;2022-10-26T07:20:10;100768.56;;;16.43;57.32
75086;BME280;63663;0.000;0.000;2022-10-26T07:22:36;100763.88;;;16.43;57.74
75086;BME280;63663;0.000;0.000;2022-10-26T07:25:01;100769.38;;;16.43;57.71
75086;BME280;63663;0.000;0.000;2022-10-26T07:27:26;100765.81;;;16.43;57.32
75086;BME280;63663;0.000;0.000;2022-10-26T07:29:51;100765.81;;;16.43;57.55
75086;BME280;63663;0.000;0.000;2022-10-26T07:32:16;100770.50;;;16.42;57.45
75086;BME280;63663;0.000;0.000;2022-10-26T07:34:41;100767.75;;;16.42;57.96
75086;BME280;63663;0.000;0.000;2022-10-26T07:37:07;100771.31;;;16.43;57.80
75086;BME280;63663;0.000;0.000;2022-10-26T07:39:32;100767.75;;;16.42;57.72
75086;BME280;63663;0.000;0.000;2022-10-26T07:41:57;100772.44;;;16.42;57.87
75086;BME280;63663;0.000;0.000;2022-10-26T07:44:22;100769.69;;;16.42;57.68
75086;BME280;63663;0.000;0.000;2022-10-26T07:46:48;100765.00;;;16.42;57.95
75086;BME280;63663;0.000;0.000;2022-10-26T07:49:13;100769.69;;;16.42;57.92
75086;BME280;63663;0.000;0.000;2022-10-26T07:51:38;100768.88;;;16.41;57.95
75086;BME280;63663;0.000;0.000;2022-10-26T07:54:03;100768.88;;;16.41;57.96
75086;BME280;63663;0.000;0.000;2022-10-26T07:56:28;100766.94;;;16.42;58.30
75086;BME280;63663;0.000;0.000;2022-10-26T07:58:54;100768.88;;;16.41;58.11
75086;BME280;63663;0.000;0.000;2022-10-26T08:01:19;100763.38;;;16.41;58.21
75086;BME280;63663;0.000;0.000;2022-10-26T08:03:44;100763.38;;;16.41;58.22
75086;BME280;63663;0.000;0.000;2022-10-26T08:06:09;100762.56;;;16.41;58.56
75086;BME280;63663;0.000;0.000;2022-10-26T08:08:35;100769.69;;;16.42;58.60
75086;BME280;63663;0.000;0.000;2022-10-26T08:11:00;100766.94;;;16.42;58.36
75086;BME280;63663;0.000;0.000;2022-10-26T08:13:25;100771.63;;;16.41;58.44
75086;BME280;63663;0.000;0.000;2022-10-26T08:15:55;100769.69;;;16.42;58.39
75086;BME280;63663;0.000;0.000;2022-10-26T08:18:20;100767.75;;;16.42;58.68
75086;BME280;63663;0.000;0.000;2022-10-26T08:20:46;100769.69;;;16.42;58.49
75086;BME280;63663;0.000;0.000;2022-10-26T08:23:11;100767.75;;;16.42;58.77
75086;BME280;63663;0.000;0.000;2022-10-26T08:25:36;100765.81;;;16.43;58.85
75086;BME280;63663;0.000;0.000;2022-10-26T08:28:01;100768.56;;;16.43;58.63
75086;BME280;63663;0.000;0.000;2022-10-26T08:30:27;100768.56;;;16.43;59.18
75086;BME280;63663;0.000;0.000;2022-10-26T08:32:59;100773.25;;;16.42;58.80
75086;BME280;63663;0.000;0.000;2022-10-26T08:35:24;100778.44;;;16.44;58.92
75086;BME280;63663;0.000;0.000;2022-10-26T08:37:50;100763.06;;;16.43;58.99
75086;BME280;63663;0.000;0.000;2022-10-26T08:40:16;100768.56;;;16.43;59.21
75086;BME280;63663;0.000;0.000;2022-10-26T08:42:42;100759.22;;;16.44;59.14
75086;BME280;63663;0.000;0.000;2022-10-26T08:47:45;100761.97;;;16.44;59.41
75086;BME280;63663;0.000;0.000;2022-10-26T08:50:22;100761.97;;;16.44;59.51
75086;BME280;63663;0.000;0.000;2022-10-26T08:52:51;100759.22;;;16.44;59.20
75086;BME280;63663;0.000;0.000;2022-10-26T08:55:19;100758.09;;;16.45;59.40
75086;BME280;63663;0.000;0.000;2022-10-26T08:57:47;100754.53;;;16.44;59.44
75086;BME280;63663;0.000;0.000;2022-10-26T09:00:17;100763.59;;;16.45;59.41
75086;BME280;63663;0.000;0.000;2022-10-26T09:02:43;100760.84;;;16.45;59.70
75086;BME280;63663;0.000;0.000;2022-10-26T09:05:13;100761.66;;;16.45;59.40
75086;BME280;63663;0.000;0.000;2022-10-26T09:17:44;100760.53;;;16.46;59.94
75086;BME280;63663;0.000;0.000;2022-10-26T09:22:48;100758.59;;;16.47;60.34
75086;BME280;63663;0.000;0.000;2022-10-26T09:25:18;100754.75;;;16.48;60.60
75086;BME280;63663;0.000;0.000;2022-10-26T09:27:51;100760.25;;;16.48;60.50
75086;BME280;63663;0.000;0.000;2022-10-26T09:30:19;100760.25;;;16.48;60.10
75086;BME280;63663;0.000;0.000;2022-10-26T09:32:46;100761.88;;;16.49;60.50
75086;BME280;63663;0.000;0.000;2022-10-26T09:35:13;100765.44;;;16.49;60.40
75086;BME280;63663;0.000;0.000;2022-10-26T09:37:41;100757.19;;;16.49;60.74
75086;BME280;63663;0.000;0.000;2022-10-26T09:40:12;100753.63;;;16.49;60.79
75086;BME280;63663;0.000;0.000;2022-10-26T09:42:51;100755.25;;;16.50;60.88
75086;BME280;63663;0.000;0.000;2022-10-26T09:45:34;100757.19;;;16.49;60.94
75086;BME280;63663;0.000;0.000;2022-10-26T09:48:11;100750.53;;;16.50;60.63
75086;BME280;63663;0.000;0.000;2022-10-26T09:50:38;100754.91;;;16.51;61.06
75086;BME280;63663;0.000;0.000;2022-10-26T09:53:04;100761.22;;;16.52;61.38
75086;BME280;63663;0.000;0.000;2022-10-26T09:55:33;100748.31;;;16.52;61.47
75086;BME280;63663;0.000;0.000;2022-10-26T09:58:02;100745.56;;;16.52;61.12
75086;BME280;63663;0.000;0.000;2022-10-26T10:00:27;100751.88;;;16.53;61.61
75086;BME280;63663;0.000;0.000;2022-10-26T10:02:54;100741.69;;;16.53;61.76
75086;BME280;63663;0.000;0.000;2022-10-26T10:05:37;100750.75;;;16.54;61.40
75086;BME280;63663;0.000;0.000;2022-10-26T10:08:16;100759.81;;;16.54;61.56
75086;BME280;63663;0.000;0.000;2022-10-26T10:13:40;100765.81;;;16.56;61.90
75086;BME280;63663;0.000;0.000;2022-10-26T10:18:31;100770.19;;;16.57;62.05
75086;BME280;63663;0.000;0.000;2022-10-26T10:20:56;100773.75;;;16.58;61.90
75086;BME280;63663;0.000;0.000;2022-10-26T10:23:30;100780.88;;;16.59;62.10
75086;BME280;63663;0.000;0.000;2022-10-26T10:26:13;100782.50;;;16.60;62.82
75086;BME280;63663;0.000;0.000;2022-10-26T10:28:39;100786.06;;;16.60;62.36
75086;BME280;63663;0.000;0.000;2022-10-26T10:31:20;100790.41;;;16.61;62.79
75086;BME280;63663;0.000;0.000;2022-10-26T10:33:46;100785.78;;;16.62;62.79
75086;BME280;63663;0.000;0.000;2022-10-26T10:36:15;100789.34;;;16.62;62.84
75086;BME280;63663;0.000;0.000;2022-10-26T10:38:43;100795.34;;;16.64;63.23
75086;BME280;63663;0.000;0.000;2022-10-26T10:41:16;100796.97;;;16.65;63.02
75086;BME280;63663;0.000;0.000;2022-10-26T10:43:43;100794.22;;;16.65;62.84
75086;BME280;63663;0.000;0.000;2022-10-26T10:46:08;100802.16;;;16.67;62.88
75086;BME280;63663;0.000;0.000;2022-10-26T10:48:33;100805.72;;;16.68;62.68
75086;BME280;63663;0.000;0.000;2022-10-26T10:50:59;100805.44;;;16.69;62.46
75086;BME280;63663;0.000;0.000;2022-10-26T10:53:28;100811.75;;;16.70;62.34
75086;BME280;63663;0.000;0.000;2022-10-26T10:56:09;100827.13;;;16.71;62.49
75086;BME280;63663;0.000;0.000;2022-10-26T10:58:54;100825.19;;;16.71;62.29
75086;BME280;63663;0.000;0.000;2022-10-26T11:01:24;100823.25;;;16.72;62.74
75086;BME280;63663;0.000;0.000;2022-10-26T11:06:38;100827.28;;;16.74;62.28
75086;BME280;63663;0.000;0.000;2022-10-26T11:09:12;100817.94;;;16.75;62.37
75086;BME280;63663;0.000;0.000;2022-10-26T11:16:33;100820.06;;;16.78;62.45
75086;BME280;63663;0.000;0.000;2022-10-26T11:21:40;100818.66;;;16.81;62.52
75086;BME280;63663;0.000;0.000;2022-10-26T11:24:17;100821.91;;;16.83;62.50
75086;BME280;63663;0.000;0.000;2022-10-26T11:26:48;100817.22;;;16.83;62.62
75086;BME280;63663;0.000;0.000;2022-10-26T11:29:19;100819.34;;;16.86;62.50
75086;BME280;63663;0.000;0.000;2022-10-26T11:31:47;100814.66;;;16.87;62.50
75086;BME280;63663;0.000;0.000;2022-10-26T11:34:32;100826.97;;;16.89;62.71
75086;BME280;63663;0.000;0.000;2022-10-26T11:37:34;100820.34;;;16.90;62.54
75086;BME280;63663;0.000;0.000;2022-10-26T11:42:50;100824.13;;;16.94;63.73
75086;BME280;63663;0.000;0.000;2022-10-26T11:45:25;100829.31;;;16.96;63.17
75086;BME280;63663;0.000;0.000;2022-10-26T11:47:53;100823.81;;;16.96;63.42
75086;BME280;63663;0.000;0.000;2022-10-26T11:50:22;100826.25;;;16.97;63.37
75086;BME280;63663;0.000;0.000;2022-10-26T11:52:57;100821.25;;;16.99;63.14
75086;BME280;63663;0.000;0.000;2022-10-26T11:55:24;100828.88;;;17.02;63.17
75086;BME280;63663;0.000;0.000;2022-10-26T11:57:49;100831.63;;;17.02;63.11
75086;BME280;63663;0.000;0.000;2022-10-26T12:00:17;100825.03;;;17.04;63.04
75086;BME280;63663;0.000;0.000;2022-10-26T12:02:50;100821.16;;;17.05;63.37
75086;BME280;63663;0.000;0.000;2022-10-26T12:05:19;100815.34;;;17.06;63.08
75086;BME280;63663;0.000;0.000;2022-10-26T12:07:46;100816.63;;;17.09;63.51
75086;BME280;63663;0.000;0.000;2022-10-26T12:10:20;100818.25;;;17.10;63.50
75086;BME280;63663;0.000;0.000;2022-10-26T12:12:47;100823.78;;;17.10;63.48
75086;BME280;63663;0.000;0.000;2022-10-26T12:15:21;100827.84;;;17.12;63.96
75086;BME280;63663;0.000;0.000;2022-10-26T12:20:56;100826.09;;;17.16;64.26
75086;BME280;63663;0.000;0.000;2022-10-26T12:23:22;100830.50;;;17.17;64.22
75086;BME280;63663;0.000;0.000;2022-10-26T12:25:47;100829.38;;;17.18;64.00
75086;BME280;63663;0.000;0.000;2022-10-26T12:31:19;100830.66;;;17.21;64.61
75086;BME280;63663;0.000;0.000;2022-10-26T12:33:48;100839.94;;;17.25;64.74
75086;BME280;63663;0.000;0.000;2022-10-26T12:36:45;100833.31;;;17.26;64.35
75086;BME280;63663;0.000;0.000;2022-10-26T12:41:57;100831.56;;;17.30;64.49
75086;BME280;63663;0.000;0.000;2022-10-26T12:44:32;100829.31;;;17.32;64.70
75086;BME280;63663;0.000;0.000;2022-10-26T12:46:58;100830.94;;;17.33;64.59
75086;BME280;63663;0.000;0.000;2022-10-26T12:52:17;100838.56;;;17.36;64.25
75086;BME280;63663;0.000;0.000;2022-10-26T12:54:44;100836.03;;;17.40;64.36
75086;BME280;63663;0.000;0.000;2022-10-26T12:57:18;100839.59;;;17.40;64.48
75086;BME280;63663;0.000;0.000;2022-10-26T12:59:49;100846.72;;;17.41;64.47
75086;BME280;63663;0.000;0.000;2022-10-26T13:05:25;100847.41;;;17.47;64.48
75086;BME280;63663;0.000;0.000;2022-10-26T13:07:40;100847.09;;;17.48;64.03
75086;BME280;63663;0.000;0.000;2022-10-26T13:12:50;100853.59;;;17.52;64.40
75086;BME280;63663;0.000;0.000;2022-10-26T13:15:21;100855.25;;;17.53;63.53
75086;BME280;63663;0.000;0.000;2022-10-26T13:18:20;100862.84;;;17.56;63.83
75086;BME280;63663;0.000;0.000;2022-10-26T13:20:50;100859.16;;;17.61;63.74
75086;BME280;63663;0.000;0.000;2022-10-26T13:23:18;100858.88;;;17.62;63.84
75086;BME280;63663;0.000;0.000;2022-10-26T13:26:01;100858.88;;;17.62;63.48
75086;BME280;63663;0.000;0.000;2022-10-26T13:28:41;100867.31;;;17.66;64.01
75086;BME280;63663;0.000;0.000;2022-10-26T13:33:51;100870.28;;;17.69;63.95
75086;BME280;63663;0.000;0.000;2022-10-26T13:36:22;100873.53;;;17.71;63.90
75086;BME280;63663;0.000;0.000;2022-10-26T13:38:51;100877.59;;;17.74;64.13
75086;BME280;63663;0.000;0.000;2022-10-26T13:41:21;100881.16;;;17.75;64.24
75086;BME280;63663;0.000;0.000;2022-10-26T13:43:49;100882.47;;;17.77;64.21
75086;BME280;63663;0.000;0.000;2022-10-26T13:46:22;100878.28;;;17.80;64.42
75086;BME280;63663;0.000;0.000;2022-10-26T13:48:48;100887.34;;;17.80;64.05
75086;BME280;63663;0.000;0.000;2022-10-26T13:51:21;100878.78;;;17.82;64.30
75086;BME280;63663;0.000;0.000;2022-10-26T13:53:56;100882.84;;;17.84;64.29
75086;BME280;63663;0.000;0.000;2022-10-26T13:56:26;100883.66;;;17.85;64.41
75086;BME280;63663;0.000;0.000;2022-10-26T13:59:05;100881.91;;;17.89;64.32
75086;BME280;63663;0.000;0.000;2022-10-26T14:01:32;100885.16;;;17.91;64.27
75086;BME280;63663;0.000;0.000;2022-10-26T14:03:58;100884.84;;;17.92;64.21
75086;BME280;63663;0.000;0.000;2022-10-26T14:08:48;100890.56;;;17.96;64.52
75086;BME280;63663;0.000;0.000;2022-10-26T14:11:16;100896.25;;;17.99;64.32
75086;BME280;63663;0.000;0.000;2022-10-26T14:13:42;100887.34;;;18.02;64.30
75086;BME280;63663;0.000;0.000;2022-10-26T14:16:07;100888.66;;;18.05;64.11
75086;BME280;63663;0.000;0.000;2022-10-26T14:18:33;100882.03;;;18.06;64.11
75086;BME280;63663;0.000;0.000;2022-10-26T14:21:03;100892.72;;;18.07;64.17
75086;BME280;63663;0.000;0.000;2022-10-26T14:26:23;100887.88;;;18.13;64.09
75086;BME280;63663;0.000;0.000;2022-10-26T14:28:49;100892.59;;;18.13;64.03
75086;BME280;63663;0.000;0.000;2022-10-26T14:33:46;100891.66;;;18.17;63.97
75086;BME280;63663;0.000;0.000;2022-10-26T14:36:11;100902.03;;;18.20;63.71
75086;BME280;63663;0.000;0.000;2022-10-26T14:38:43;100898.97;;;18.22;63.80
75086;BME280;63663;0.000;0.000;2022-10-26T14:41:10;100902.56;;;18.22;63.68